Pagrindinis puslapis
METAR-TAF:

METAR-TAF

Oro uostai :

Chiang Rai, Tailandas

platuma: 19-57-08N, ilguma: 099-52-59E, Aukštis: 390 m

Dabartinis oras

Ataskaita buvo paskelbta 1 valandą ir 1 minutes, ne 14:00 UTC
Vėjas 4 kt iš Pietų
Temperatūra 27°C
Drėgmė 89%
Slėgis 1008 hPa
Matomumas 10 km arba daugiau
Išsisklaidę debesys ne aukštis 3000 ft

METAR: VTCT 171400Z 19004KT 9999 SCT030 27/25 Q1008 NOSIG

Laikas: 22:01 (15:01 UTC)

Prognozė

Ataskaita buvo paskelbta 4 valandos ir 1 minutes, ne 11:00 UTC
Prognozė galioja nuo 17 metu 12 UTC su 18 metu 18 UTC
Vėjas 5 kt iš Pietų/Pietvakarių
Matomumas 10 km arba daugiau
Su prošvaistėmis ne aukštis 2500 ft
Laikinai
nuo 17 metu 12 UTC su 17 metu 15 UTC
Vėjas 15 kt nuo kintamojo kryptimis su gūsio iki 30 kt
Matomumas: 4000 m
Mažai debesys ne aukštis 1800 ft, Liūtiniai kamuoliniai debesys.
perkūnija, lietus

TAF: VTCT 171100Z 1712/1818 20005KT 9999 BKN025 TEMPO 1712/1715 VRB15G30KT 4000 TSRA FEW018CB

Orai ataskaitas ir orų prognozės (METAR, TAF).

turimą stotys yra geltonos ir raudonos taškus žemėlapyje.

Perkelti pele per norėdami pamatyti stoties vardą.

Tada spustelėkite, norėdami matyti oro stebėjimo ir prognozės.

Norėdami pakeisti žemėlapį: spustelėkite ant žalios mygtukų su juodo kryžiaus žemyn,; žalią mygtuką su brūkšneliu, jei norite nutolinti; arba žalių rodyklių gretimoms žemėlapius.


METAR-TAF: